Saturday, July 21, 2018, 9:03 PM EDT
Back to Local

KMMU, Morristown Municipal

Location: Morristown, NJ, United States Lat: 40.8
Local Time: 9:03 PM EDT ( 1:03 GMT) Lon: -74.417
Time Zone: US/Eastern Elev: 187 ft

Show me the last for .
Show Decoded

2018-07-21 20:45 METAR KMMU 220045Z 07008KT 7SMSM OVC039 18/16 A2996 =
2018-07-21 19:45 METAR KMMU 212345Z 07016G21KT 7SMSM -RA BR OVC039 20/16 A2997 =
2018-07-21 18:45 METAR KMMU 212245Z 08010G14KT 10SM OVC050 21/17 A2999 =
2018-07-21 17:45 METAR KMMU 212145Z 09011G17KT 10SM SCT060 BKN080 OVC110 22/16 A3000 =
2018-07-21 16:50 METAR KMMU 212050Z 10014G21KT 10SM SCT070 BKN080 BKN110 23/16 A3000 =
2018-07-21 15:45 METAR KMMU 211945Z 09008G18KT 10SM BKN080 BKN120 24/16 A3002 =
2018-07-21 14:55 METAR KMMU 211855Z 12009KT 10SM SCT046 BKN120 24/16 A3003 =
2018-07-21 13:55 METAR KMMU 211755Z 13010G16KT 10SM SCT045 BKN120 25/16 A3004 =
2018-07-21 12:45 METAR KMMU 211645Z 12012G17KT 10SM SCT045 BKN120 25/16 A3007 =
2018-07-21 11:50 METAR KMMU 211550Z 14008KT 10SM SCT045 BKN100 24/15 A3007 =
2018-07-21 10:50 METAR KMMU 211450Z 11011KT 10SM SCT041 SCT150 24/16 A3008 =
2018-07-21 09:55 METAR KMMU 211355Z 09010G14KT 10SM SCT037 SCT095 BKN110 24/16 A3009 =
2018-07-21 09:00 METAR KMMU 211300Z 14009KT 10SM SCT033 SCT150 23/16 A3009 =
2018-07-21 08:45 METAR KMMU 211245Z 05004KT 10SM SCT033 SCT150 21/18 A3008 =
2018-07-21 07:45 METAR KMMU 211145Z 05004KT 10SM SCT033 SCT150 18/17 A3009 =
2018-07-21 06:45 METAR KMMU 211045Z 00000KT 10SM FEW033 FEW100 16/16 A3009 =
2018-07-21 06:35 METAR KMMU 211035Z AUTO 00000KT 10SM BKN033 16/16 A3009 RMK AO2 =
2018-07-21 06:15 METAR KMMU 211015Z AUTO 00000KT 10SM SCT033 15/15 A3009 RMK AO2 =
2018-07-21 05:55 METAR KMMU 210955Z AUTO 00000KT 10SM CLR 15/15 A3009 RMK AO2 =
2018-07-21 05:35 METAR KMMU 210935Z AUTO 00000KT 10SM CLR 15/15 A3009 RMK AO2 =
2018-07-21 05:15 METAR KMMU 210915Z AUTO 00000KT 10SM SCT029 SCT034 15/15 A3009 RMK AO2 =
2018-07-21 04:55 METAR KMMU 210855Z AUTO 00000KT 10SM BKN029 15/15 A3010 RMK AO2 =
2018-07-21 04:35 METAR KMMU 210835Z AUTO 00000KT 10SM CLR 15/15 A3009 RMK AO2 =
2018-07-21 04:15 METAR KMMU 210815Z AUTO 00000KT 10SM CLR 14/14 A3010 RMK AO2 =
2018-07-21 03:55 METAR KMMU 210755Z AUTO 00000KT 1/2SM FG VV005 14/14 A3010 RMK AO2 =
2018-07-21 03:35 METAR KMMU 210735Z AUTO 00000KT 3/4SM BR VV005 14/14 A3010 RMK AO2 =
2018-07-21 03:15 METAR KMMU 210715Z AUTO 00000KT 10SM SCT033 14/14 A3010 RMK AO2 =
2018-07-21 02:55 METAR KMMU 210655Z AUTO 00000KT 1 3/4SM BR BKN033 14/14 A3010 RMK AO2 =
2018-07-21 02:35 METAR KMMU 210635Z AUTO 00000KT 4SM BR SCT033 15/15 A3011 RMK AO2 =
2018-07-21 02:15 METAR KMMU 210615Z AUTO 00000KT 10SM SCT033 15/15 A3010 RMK AO2 =
2018-07-21 01:55 METAR KMMU 210555Z AUTO 00000KT 10SM BKN033 15/15 A3010 RMK AO2 =
2018-07-21 01:35 METAR KMMU 210535Z AUTO 00000KT 10SM BKN033 15/14 A3010 RMK AO2 =
2018-07-21 01:15 METAR KMMU 210515Z AUTO 00000KT 10SM SCT033 15/15 A3011 RMK AO2 =
2018-07-21 00:55 METAR KMMU 210455Z AUTO 00000KT 10SM CLR 15/15 A3012 RMK AO2 =
2018-07-21 00:35 METAR KMMU 210435Z AUTO 00000KT 10SM CLR 16/15 A3012 RMK AO2 =
2018-07-21 00:15 METAR KMMU 210415Z AUTO 00000KT 10SM SCT032 15/15 A3011 RMK AO2 =
2018-07-20 23:55 METAR KMMU 210355Z AUTO 00000KT 10SM SCT032 16/15 A3012 RMK AO2 =
2018-07-20 23:35 METAR KMMU 210335Z AUTO 00000KT 10SM CLR 16/15 A3013 RMK AO2 =
2018-07-20 23:15 METAR KMMU 210315Z AUTO 00000KT 10SM CLR 16/15 A3013 RMK AO2 =
2018-07-20 22:55 METAR KMMU 210255Z AUTO 00000KT 10SM CLR 16/15 A3013 RMK AO2 =
2018-07-20 22:35 METAR KMMU 210235Z AUTO 00000KT 10SM CLR 17/15 A3013 RMK AO2 =
2018-07-20 22:15 METAR KMMU 210215Z AUTO 00000KT 10SM CLR 18/15 A3013 RMK AO2 =
2018-07-20 21:45 METAR KMMU 210145Z 00000KT 10SM SCT250 18/16 A3013 =

Support USWX by starting your Amazon purchase here.